sensor_id;sensor_type;location;lat;lon;timestamp;temperature;humidity
37002;DHT22;22913;51.910;8.374;2023-06-22T00:00:59;22.50;99.90
37002;DHT22;22913;51.910;8.374;2023-06-22T00:03:46;22.50;99.90
37002;DHT22;22913;51.910;8.374;2023-06-22T00:06:32;22.40;99.90
37002;DHT22;22913;51.910;8.374;2023-06-22T00:09:17;22.40;99.90
37002;DHT22;22913;51.910;8.374;2023-06-22T00:12:04;22.30;99.90
37002;DHT22;22913;51.910;8.374;2023-06-22T00:14:50;22.30;99.90
37002;DHT22;22913;51.910;8.374;2023-06-22T00:17:36;22.10;99.90
37002;DHT22;22913;51.910;8.374;2023-06-22T00:20:23;22.10;99.90
37002;DHT22;22913;51.910;8.374;2023-06-22T00:23:12;22.00;99.90
37002;DHT22;22913;51.910;8.374;2023-06-22T00:26:00;22.00;99.90
37002;DHT22;22913;51.910;8.374;2023-06-22T00:28:45;22.00;99.90
37002;DHT22;22913;51.910;8.374;2023-06-22T00:31:31;21.90;99.90
37002;DHT22;22913;51.910;8.374;2023-06-22T00:34:17;21.80;99.90
37002;DHT22;22913;51.910;8.374;2023-06-22T00:37:04;21.70;99.90
37002;DHT22;22913;51.910;8.374;2023-06-22T00:39:49;21.70;99.90
37002;DHT22;22913;51.910;8.374;2023-06-22T00:42:35;21.70;99.90
37002;DHT22;22913;51.910;8.374;2023-06-22T00:45:21;21.70;99.90
37002;DHT22;22913;51.910;8.374;2023-06-22T00:48:08;21.70;99.90
37002;DHT22;22913;51.910;8.374;2023-06-22T00:50:53;21.60;99.90
37002;DHT22;22913;51.910;8.374;2023-06-22T00:53:41;21.60;99.90
37002;DHT22;22913;51.910;8.374;2023-06-22T00:56:27;21.50;99.90
37002;DHT22;22913;51.910;8.374;2023-06-22T00:59:14;21.50;99.90
37002;DHT22;22913;51.910;8.374;2023-06-22T01:02:01;21.40;99.90
37002;DHT22;22913;51.910;8.374;2023-06-22T01:04:47;21.40;99.90
37002;DHT22;22913;51.910;8.374;2023-06-22T01:07:37;21.50;99.90
37002;DHT22;22913;51.910;8.374;2023-06-22T01:10:31;21.40;99.90
37002;DHT22;22913;51.910;8.374;2023-06-22T01:13:28;21.50;99.90
37002;DHT22;22913;51.910;8.374;2023-06-22T01:16:17;21.40;99.90
37002;DHT22;22913;51.910;8.374;2023-06-22T01:19:14;21.40;99.90
37002;DHT22;22913;51.910;8.374;2023-06-22T01:22:06;21.40;99.90
37002;DHT22;22913;51.910;8.374;2023-06-22T01:25:09;21.40;99.90
37002;DHT22;22913;51.910;8.374;2023-06-22T01:28:03;21.30;99.90
37002;DHT22;22913;51.910;8.374;2023-06-22T01:30:52;21.30;99.90
37002;DHT22;22913;51.910;8.374;2023-06-22T01:33:58;21.30;99.90
37002;DHT22;22913;51.910;8.374;2023-06-22T01:36:45;21.40;99.90
37002;DHT22;22913;51.910;8.374;2023-06-22T01:39:31;21.40;99.90
37002;DHT22;22913;51.910;8.374;2023-06-22T01:42:17;21.30;99.90
37002;DHT22;22913;51.910;8.374;2023-06-22T01:45:04;21.30;99.90
37002;DHT22;22913;51.910;8.374;2023-06-22T01:47:51;21.30;99.90
37002;DHT22;22913;51.910;8.374;2023-06-22T01:50:37;21.20;99.90
37002;DHT22;22913;51.910;8.374;2023-06-22T01:53:22;21.30;99.90
37002;DHT22;22913;51.910;8.374;2023-06-22T01:56:08;21.20;99.90
37002;DHT22;22913;51.910;8.374;2023-06-22T01:59:00;21.30;99.90
37002;DHT22;22913;51.910;8.374;2023-06-22T02:01:52;21.30;99.90
37002;DHT22;22913;51.910;8.374;2023-06-22T02:04:44;21.30;99.90
37002;DHT22;22913;51.910;8.374;2023-06-22T02:07:35;21.30;99.90
37002;DHT22;22913;51.910;8.374;2023-06-22T02:10:27;21.30;99.90
37002;DHT22;22913;51.910;8.374;2023-06-22T02:13:13;21.30;99.90
37002;DHT22;22913;51.910;8.374;2023-06-22T02:16:00;21.20;99.90
37002;DHT22;22913;51.910;8.374;2023-06-22T02:18:46;21.20;99.90
37002;DHT22;22913;51.910;8.374;2023-06-22T02:21:36;21.20;99.90
37002;DHT22;22913;51.910;8.374;2023-06-22T02:24:22;21.10;99.90
37002;DHT22;22913;51.910;8.374;2023-06-22T02:27:08;21.20;99.90
37002;DHT22;22913;51.910;8.374;2023-06-22T02:29:54;21.20;99.90
37002;DHT22;22913;51.910;8.374;2023-06-22T02:32:40;21.20;99.90
37002;DHT22;22913;51.910;8.374;2023-06-22T02:35:26;21.20;99.90
37002;DHT22;22913;51.910;8.374;2023-06-22T02:38:16;21.10;99.90
37002;DHT22;22913;51.910;8.374;2023-06-22T02:41:03;21.10;99.90
37002;DHT22;22913;51.910;8.374;2023-06-22T02:43:50;21.00;99.90
37002;DHT22;22913;51.910;8.374;2023-06-22T02:46:36;21.00;99.90
37002;DHT22;22913;51.910;8.374;2023-06-22T02:49:21;21.10;99.90
37002;DHT22;22913;51.910;8.374;2023-06-22T02:52:07;21.00;99.90
37002;DHT22;22913;51.910;8.374;2023-06-22T02:54:54;21.00;99.90
37002;DHT22;22913;51.910;8.374;2023-06-22T02:57:40;20.90;99.90
37002;DHT22;22913;51.910;8.374;2023-06-22T03:00:27;20.90;99.90
37002;DHT22;22913;51.910;8.374;2023-06-22T03:03:14;20.90;99.90
37002;DHT22;22913;51.910;8.374;2023-06-22T03:05:59;20.90;99.90
37002;DHT22;22913;51.910;8.374;2023-06-22T03:08:46;20.90;99.90
37002;DHT22;22913;51.910;8.374;2023-06-22T03:11:33;20.90;99.90
37002;DHT22;22913;51.910;8.374;2023-06-22T03:14:19;20.90;99.90
37002;DHT22;22913;51.910;8.374;2023-06-22T03:17:05;20.90;99.90
37002;DHT22;22913;51.910;8.374;2023-06-22T03:19:50;20.80;99.90
37002;DHT22;22913;51.910;8.374;2023-06-22T03:22:36;20.80;99.90
37002;DHT22;22913;51.910;8.374;2023-06-22T03:25:22;20.80;99.90
37002;DHT22;22913;51.910;8.374;2023-06-22T03:28:09;20.70;99.90
37002;DHT22;22913;51.910;8.374;2023-06-22T03:30:54;20.70;99.90
37002;DHT22;22913;51.910;8.374;2023-06-22T03:33:40;20.70;99.90
37002;DHT22;22913;51.910;8.374;2023-06-22T03:36:26;20.80;99.90
37002;DHT22;22913;51.910;8.374;2023-06-22T03:39:12;20.80;99.90
37002;DHT22;22913;51.910;8.374;2023-06-22T03:41:57;20.80;99.90
37002;DHT22;22913;51.910;8.374;2023-06-22T03:44:44;20.80;99.90
37002;DHT22;22913;51.910;8.374;2023-06-22T03:47:30;20.80;99.90
37002;DHT22;22913;51.910;8.374;2023-06-22T03:50:16;20.70;99.90
37002;DHT22;22913;51.910;8.374;2023-06-22T03:53:01;20.70;99.90
37002;DHT22;22913;51.910;8.374;2023-06-22T03:55:51;20.70;99.90
37002;DHT22;22913;51.910;8.374;2023-06-22T03:58:36;20.70;99.90
37002;DHT22;22913;51.910;8.374;2023-06-22T04:01:28;20.70;99.90
37002;DHT22;22913;51.910;8.374;2023-06-22T04:04:14;20.70;99.90
37002;DHT22;22913;51.910;8.374;2023-06-22T04:06:59;20.70;99.90
37002;DHT22;22913;51.910;8.374;2023-06-22T04:09:45;20.80;99.90
37002;DHT22;22913;51.910;8.374;2023-06-22T04:12:30;20.80;99.90
37002;DHT22;22913;51.910;8.374;2023-06-22T04:15:16;20.80;99.90
37002;DHT22;22913;51.910;8.374;2023-06-22T04:18:03;20.80;99.90
37002;DHT22;22913;51.910;8.374;2023-06-22T04:20:49;20.80;99.90
37002;DHT22;22913;51.910;8.374;2023-06-22T04:23:34;20.80;99.90
37002;DHT22;22913;51.910;8.374;2023-06-22T04:26:20;20.80;99.90
37002;DHT22;22913;51.910;8.374;2023-06-22T04:29:06;20.80;99.90
37002;DHT22;22913;51.910;8.374;2023-06-22T04:31:52;20.80;99.90
37002;DHT22;22913;51.910;8.374;2023-06-22T04:34:41;20.80;99.90
37002;DHT22;22913;51.910;8.374;2023-06-22T04:37:26;20.80;99.90
37002;DHT22;22913;51.910;8.374;2023-06-22T04:40:12;20.80;99.90
37002;DHT22;22913;51.910;8.374;2023-06-22T04:42:59;20.90;99.90
37002;DHT22;22913;51.910;8.374;2023-06-22T04:45:46;20.90;99.90
37002;DHT22;22913;51.910;8.374;2023-06-22T04:48:37;20.90;99.90
37002;DHT22;22913;51.910;8.374;2023-06-22T04:51:24;21.00;99.90
37002;DHT22;22913;51.910;8.374;2023-06-22T04:54:13;21.00;99.90
37002;DHT22;22913;51.910;8.374;2023-06-22T04:56:59;21.10;99.90
37002;DHT22;22913;51.910;8.374;2023-06-22T04:59:45;21.20;99.90
37002;DHT22;22913;51.910;8.374;2023-06-22T05:02:31;21.30;99.90
37002;DHT22;22913;51.910;8.374;2023-06-22T05:05:17;21.40;99.90
37002;DHT22;22913;51.910;8.374;2023-06-22T05:08:04;21.50;99.90
37002;DHT22;22913;51.910;8.374;2023-06-22T05:10:51;21.60;99.90
37002;DHT22;22913;51.910;8.374;2023-06-22T05:13:36;21.60;99.90
37002;DHT22;22913;51.910;8.374;2023-06-22T05:16:22;21.60;99.90
37002;DHT22;22913;51.910;8.374;2023-06-22T05:19:09;21.60;99.90
37002;DHT22;22913;51.910;8.374;2023-06-22T05:21:55;21.60;99.90
37002;DHT22;22913;51.910;8.374;2023-06-22T05:24:42;21.60;99.90
37002;DHT22;22913;51.910;8.374;2023-06-22T05:27:28;21.70;99.90
37002;DHT22;22913;51.910;8.374;2023-06-22T05:30:13;21.70;99.90
37002;DHT22;22913;51.910;8.374;2023-06-22T05:33:00;21.70;99.90
37002;DHT22;22913;51.910;8.374;2023-06-22T05:35:46;21.80;99.90
37002;DHT22;22913;51.910;8.374;2023-06-22T05:38:32;21.90;99.90
37002;DHT22;22913;51.910;8.374;2023-06-22T05:41:19;21.90;99.90
37002;DHT22;22913;51.910;8.374;2023-06-22T05:44:05;21.90;99.90
37002;DHT22;22913;51.910;8.374;2023-06-22T05:46:50;22.00;99.90
37002;DHT22;22913;51.910;8.374;2023-06-22T05:49:36;22.00;99.90
37002;DHT22;22913;51.910;8.374;2023-06-22T05:52:21;22.10;99.90
37002;DHT22;22913;51.910;8.374;2023-06-22T05:55:08;22.10;99.90
37002;DHT22;22913;51.910;8.374;2023-06-22T05:57:55;22.20;99.90
37002;DHT22;22913;51.910;8.374;2023-06-22T06:00:41;22.20;99.90
37002;DHT22;22913;51.910;8.374;2023-06-22T06:03:28;22.30;99.90
37002;DHT22;22913;51.910;8.374;2023-06-22T06:06:14;22.40;99.90
37002;DHT22;22913;51.910;8.374;2023-06-22T06:08:59;22.50;99.90
37002;DHT22;22913;51.910;8.374;2023-06-22T06:11:45;22.60;99.90
37002;DHT22;22913;51.910;8.374;2023-06-22T06:14:32;22.70;99.90
37002;DHT22;22913;51.910;8.374;2023-06-22T06:17:18;22.80;99.90
37002;DHT22;22913;51.910;8.374;2023-06-22T06:20:04;23.10;99.90
37002;DHT22;22913;51.910;8.374;2023-06-22T06:22:52;23.20;99.90
37002;DHT22;22913;51.910;8.374;2023-06-22T06:25:37;23.30;99.90
37002;DHT22;22913;51.910;8.374;2023-06-22T06:28:24;23.40;99.90
37002;DHT22;22913;51.910;8.374;2023-06-22T06:31:11;23.60;99.90
37002;DHT22;22913;51.910;8.374;2023-06-22T06:34:01;23.70;99.90
37002;DHT22;22913;51.910;8.374;2023-06-22T06:36:46;23.80;99.90
37002;DHT22;22913;51.910;8.374;2023-06-22T06:39:32;24.00;99.90
37002;DHT22;22913;51.910;8.374;2023-06-22T06:42:18;24.10;99.90
37002;DHT22;22913;51.910;8.374;2023-06-22T06:45:05;24.20;99.90
37002;DHT22;22913;51.910;8.374;2023-06-22T06:47:52;24.40;99.90
37002;DHT22;22913;51.910;8.374;2023-06-22T06:50:38;24.70;99.90
37002;DHT22;22913;51.910;8.374;2023-06-22T06:53:23;24.60;99.90
37002;DHT22;22913;51.910;8.374;2023-06-22T06:56:09;24.60;99.90
37002;DHT22;22913;51.910;8.374;2023-06-22T06:58:56;24.70;99.90
37002;DHT22;22913;51.910;8.374;2023-06-22T07:01:42;24.70;99.90
37002;DHT22;22913;51.910;8.374;2023-06-22T07:04:29;24.60;99.90
37002;DHT22;22913;51.910;8.374;2023-06-22T07:07:15;24.40;99.90
37002;DHT22;22913;51.910;8.374;2023-06-22T07:10:01;24.30;99.90
37002;DHT22;22913;51.910;8.374;2023-06-22T07:12:47;24.30;99.90
37002;DHT22;22913;51.910;8.374;2023-06-22T07:15:32;24.30;99.90
37002;DHT22;22913;51.910;8.374;2023-06-22T07:18:18;24.30;99.90
37002;DHT22;22913;51.910;8.374;2023-06-22T07:21:05;24.20;99.90
37002;DHT22;22913;51.910;8.374;2023-06-22T07:23:51;24.20;99.90
37002;DHT22;22913;51.910;8.374;2023-06-22T07:26:37;24.20;99.90
37002;DHT22;22913;51.910;8.374;2023-06-22T07:29:22;24.20;99.90
37002;DHT22;22913;51.910;8.374;2023-06-22T07:32:08;24.10;99.90
37002;DHT22;22913;51.910;8.374;2023-06-22T07:34:53;24.20;99.90
37002;DHT22;22913;51.910;8.374;2023-06-22T07:37:41;24.30;99.90
37002;DHT22;22913;51.910;8.374;2023-06-22T07:40:26;24.30;99.90
37002;DHT22;22913;51.910;8.374;2023-06-22T07:43:11;24.40;99.90
37002;DHT22;22913;51.910;8.374;2023-06-22T07:45:57;24.50;99.90
37002;DHT22;22913;51.910;8.374;2023-06-22T07:48:43;24.60;99.90
37002;DHT22;22913;51.910;8.374;2023-06-22T07:51:28;24.50;99.90
37002;DHT22;22913;51.910;8.374;2023-06-22T07:54:16;24.50;99.90
37002;DHT22;22913;51.910;8.374;2023-06-22T07:57:01;24.60;99.90
37002;DHT22;22913;51.910;8.374;2023-06-22T07:59:47;24.70;99.90
37002;DHT22;22913;51.910;8.374;2023-06-22T08:02:32;24.80;99.90
37002;DHT22;22913;51.910;8.374;2023-06-22T08:05:18;24.90;99.90
37002;DHT22;22913;51.910;8.374;2023-06-22T08:08:04;25.00;99.90
37002;DHT22;22913;51.910;8.374;2023-06-22T08:10:50;25.00;99.90
37002;DHT22;22913;51.910;8.374;2023-06-22T08:13:36;25.00;99.90
37002;DHT22;22913;51.910;8.374;2023-06-22T08:16:22;24.90;99.90
37002;DHT22;22913;51.910;8.374;2023-06-22T08:19:07;25.00;99.90
37002;DHT22;22913;51.910;8.374;2023-06-22T08:21:53;25.10;99.90
37002;DHT22;22913;51.910;8.374;2023-06-22T08:24:39;25.10;99.90
37002;DHT22;22913;51.910;8.374;2023-06-22T08:27:26;25.20;99.90
37002;DHT22;22913;51.910;8.374;2023-06-22T08:30:13;25.30;99.90
37002;DHT22;22913;51.910;8.374;2023-06-22T08:32:58;25.40;99.90
37002;DHT22;22913;51.910;8.374;2023-06-22T08:35:44;25.60;99.90
37002;DHT22;22913;51.910;8.374;2023-06-22T08:38:30;25.70;99.90
37002;DHT22;22913;51.910;8.374;2023-06-22T08:41:15;25.80;99.90
37002;DHT22;22913;51.910;8.374;2023-06-22T08:44:03;25.90;99.90
37002;DHT22;22913;51.910;8.374;2023-06-22T08:46:48;26.00;99.90
37002;DHT22;22913;51.910;8.374;2023-06-22T08:49:34;26.10;99.90
37002;DHT22;22913;51.910;8.374;2023-06-22T08:52:20;26.30;99.90
37002;DHT22;22913;51.910;8.374;2023-06-22T08:55:08;26.40;99.90
37002;DHT22;22913;51.910;8.374;2023-06-22T08:57:53;26.60;99.90
37002;DHT22;22913;51.910;8.374;2023-06-22T09:00:40;26.80;99.90
37002;DHT22;22913;51.910;8.374;2023-06-22T09:03:26;27.10;99.90
37002;DHT22;22913;51.910;8.374;2023-06-22T09:06:11;27.20;99.90
37002;DHT22;22913;51.910;8.374;2023-06-22T09:08:58;27.20;99.90
37002;DHT22;22913;51.910;8.374;2023-06-22T09:11:44;27.10;99.90
37002;DHT22;22913;51.910;8.374;2023-06-22T09:14:30;27.30;99.90
37002;DHT22;22913;51.910;8.374;2023-06-22T09:17:17;27.40;99.90
37002;DHT22;22913;51.910;8.374;2023-06-22T09:20:03;27.30;99.90
37002;DHT22;22913;51.910;8.374;2023-06-22T09:22:50;27.40;99.90
37002;DHT22;22913;51.910;8.374;2023-06-22T09:25:35;27.40;99.90
37002;DHT22;22913;51.910;8.374;2023-06-22T09:28:21;27.50;99.90
37002;DHT22;22913;51.910;8.374;2023-06-22T09:31:07;27.60;99.90
37002;DHT22;22913;51.910;8.374;2023-06-22T09:33:54;27.60;99.90
37002;DHT22;22913;51.910;8.374;2023-06-22T09:36:41;27.60;99.90
37002;DHT22;22913;51.910;8.374;2023-06-22T09:39:27;27.60;99.90
37002;DHT22;22913;51.910;8.374;2023-06-22T09:42:12;27.70;99.90
37002;DHT22;22913;51.910;8.374;2023-06-22T09:44:58;27.80;99.90
37002;DHT22;22913;51.910;8.374;2023-06-22T09:47:45;28.00;99.90
37002;DHT22;22913;51.910;8.374;2023-06-22T09:50:32;28.10;99.90
37002;DHT22;22913;51.910;8.374;2023-06-22T09:53:18;28.10;99.90
37002;DHT22;22913;51.910;8.374;2023-06-22T09:56:04;28.30;99.90
37002;DHT22;22913;51.910;8.374;2023-06-22T09:58:50;28.40;99.90
37002;DHT22;22913;51.910;8.374;2023-06-22T10:01:36;28.60;99.90
37002;DHT22;22913;51.910;8.374;2023-06-22T10:04:22;28.80;99.90
37002;DHT22;22913;51.910;8.374;2023-06-22T10:07:10;28.90;99.90
37002;DHT22;22913;51.910;8.374;2023-06-22T10:09:55;29.00;99.90
37002;DHT22;22913;51.910;8.374;2023-06-22T10:12:45;29.10;99.90
37002;DHT22;22913;51.910;8.374;2023-06-22T10:15:31;29.30;99.90
37002;DHT22;22913;51.910;8.374;2023-06-22T10:18:17;29.50;99.90
37002;DHT22;22913;51.910;8.374;2023-06-22T10:21:02;29.60;99.90
37002;DHT22;22913;51.910;8.374;2023-06-22T10:23:50;29.70;99.90
37002;DHT22;22913;51.910;8.374;2023-06-22T10:26:36;29.70;99.90
37002;DHT22;22913;51.910;8.374;2023-06-22T10:29:22;29.90;99.90
37002;DHT22;22913;51.910;8.374;2023-06-22T10:32:08;30.00;99.90
37002;DHT22;22913;51.910;8.374;2023-06-22T10:34:54;30.20;99.90
37002;DHT22;22913;51.910;8.374;2023-06-22T10:37:39;30.40;99.90
37002;DHT22;22913;51.910;8.374;2023-06-22T10:40:28;30.70;99.90
37002;DHT22;22913;51.910;8.374;2023-06-22T10:43:14;30.70;99.90
37002;DHT22;22913;51.910;8.374;2023-06-22T10:45:59;30.80;99.90
37002;DHT22;22913;51.910;8.374;2023-06-22T10:48:45;30.90;99.90
37002;DHT22;22913;51.910;8.374;2023-06-22T10:51:31;30.90;99.90
37002;DHT22;22913;51.910;8.374;2023-06-22T10:54:17;31.00;99.90
37002;DHT22;22913;51.910;8.374;2023-06-22T10:57:05;31.10;99.90
37002;DHT22;22913;51.910;8.374;2023-06-22T10:59:51;31.20;99.90
37002;DHT22;22913;51.910;8.374;2023-06-22T11:02:37;31.20;99.90
37002;DHT22;22913;51.910;8.374;2023-06-22T11:05:22;31.10;99.90
37002;DHT22;22913;51.910;8.374;2023-06-22T11:08:08;31.20;99.90
37002;DHT22;22913;51.910;8.374;2023-06-22T11:10:53;31.10;99.90
37002;DHT22;22913;51.910;8.374;2023-06-22T11:13:40;31.30;99.90
37002;DHT22;22913;51.910;8.374;2023-06-22T11:16:26;31.30;99.90
37002;DHT22;22913;51.910;8.374;2023-06-22T11:19:12;31.30;99.90
37002;DHT22;22913;51.910;8.374;2023-06-22T11:21:57;31.30;99.90
37002;DHT22;22913;51.910;8.374;2023-06-22T11:24:43;31.30;99.90
37002;DHT22;22913;51.910;8.374;2023-06-22T11:27:29;31.30;99.90
37002;DHT22;22913;51.910;8.374;2023-06-22T11:30:16;31.20;99.90
37002;DHT22;22913;51.910;8.374;2023-06-22T11:33:01;31.10;99.90
37002;DHT22;22913;51.910;8.374;2023-06-22T11:35:47;31.10;99.90
37002;DHT22;22913;51.910;8.374;2023-06-22T11:38:33;31.00;99.90
37002;DHT22;22913;51.910;8.374;2023-06-22T11:41:20;30.90;99.90
37002;DHT22;22913;51.910;8.374;2023-06-22T11:44:06;30.80;99.90
37002;DHT22;22913;51.910;8.374;2023-06-22T11:46:53;30.80;99.90
37002;DHT22;22913;51.910;8.374;2023-06-22T11:49:39;30.80;99.90
37002;DHT22;22913;51.910;8.374;2023-06-22T11:52:24;30.80;99.90
37002;DHT22;22913;51.910;8.374;2023-06-22T11:55:11;30.70;99.90
37002;DHT22;22913;51.910;8.374;2023-06-22T11:57:57;30.70;99.90
37002;DHT22;22913;51.910;8.374;2023-06-22T12:00:47;30.70;99.90
37002;DHT22;22913;51.910;8.374;2023-06-22T12:03:34;30.60;99.90
37002;DHT22;22913;51.910;8.374;2023-06-22T12:06:19;30.50;99.90
37002;DHT22;22913;51.910;8.374;2023-06-22T12:09:05;30.50;99.90
37002;DHT22;22913;51.910;8.374;2023-06-22T12:11:51;30.40;99.90
37002;DHT22;22913;51.910;8.374;2023-06-22T12:14:37;30.20;99.90
37002;DHT22;22913;51.910;8.374;2023-06-22T12:17:22;30.10;99.90
37002;DHT22;22913;51.910;8.374;2023-06-22T12:20:10;29.90;99.90
37002;DHT22;22913;51.910;8.374;2023-06-22T12:22:57;29.70;99.90
37002;DHT22;22913;51.910;8.374;2023-06-22T12:25:44;29.60;99.90
37002;DHT22;22913;51.910;8.374;2023-06-22T12:28:29;29.60;99.90
37002;DHT22;22913;51.910;8.374;2023-06-22T12:31:15;29.40;99.90
37002;DHT22;22913;51.910;8.374;2023-06-22T12:34:01;29.20;99.90
37002;DHT22;22913;51.910;8.374;2023-06-22T12:36:48;29.10;99.90
37002;DHT22;22913;51.910;8.374;2023-06-22T12:39:34;29.00;99.90
37002;DHT22;22913;51.910;8.374;2023-06-22T12:42:19;28.90;99.90
37002;DHT22;22913;51.910;8.374;2023-06-22T12:45:06;28.70;99.90
37002;DHT22;22913;51.910;8.374;2023-06-22T12:47:51;28.60;99.90
37002;DHT22;22913;51.910;8.374;2023-06-22T12:50:37;28.40;99.90
37002;DHT22;22913;51.910;8.374;2023-06-22T12:53:24;28.40;99.90
37002;DHT22;22913;51.910;8.374;2023-06-22T12:56:11;28.30;99.90
37002;DHT22;22913;51.910;8.374;2023-06-22T12:58:57;28.10;99.90
37002;DHT22;22913;51.910;8.374;2023-06-22T13:01:42;27.80;99.90
37002;DHT22;22913;51.910;8.374;2023-06-22T13:04:29;27.60;99.90
37002;DHT22;22913;51.910;8.374;2023-06-22T13:07:15;27.50;99.90
37002;DHT22;22913;51.910;8.374;2023-06-22T13:10:02;27.40;99.90
37002;DHT22;22913;51.910;8.374;2023-06-22T13:12:48;27.40;99.90
37002;DHT22;22913;51.910;8.374;2023-06-22T13:15:34;27.30;99.90
37002;DHT22;22913;51.910;8.374;2023-06-22T13:18:20;27.00;99.90
37002;DHT22;22913;51.910;8.374;2023-06-22T13:21:05;26.90;99.90
37002;DHT22;22913;51.910;8.374;2023-06-22T13:23:50;26.80;99.90
37002;DHT22;22913;51.910;8.374;2023-06-22T13:26:38;26.70;99.90
37002;DHT22;22913;51.910;8.374;2023-06-22T13:29:23;26.60;99.90
37002;DHT22;22913;51.910;8.374;2023-06-22T13:32:09;26.40;99.90
37002;DHT22;22913;51.910;8.374;2023-06-22T13:34:54;26.30;99.90
37002;DHT22;22913;51.910;8.374;2023-06-22T13:37:40;26.00;99.90
37002;DHT22;22913;51.910;8.374;2023-06-22T13:40:26;25.90;99.90
37002;DHT22;22913;51.910;8.374;2023-06-22T13:43:13;25.80;99.90
37002;DHT22;22913;51.910;8.374;2023-06-22T13:45:59;25.70;99.90
37002;DHT22;22913;51.910;8.374;2023-06-22T13:48:45;25.60;99.90
37002;DHT22;22913;51.910;8.374;2023-06-22T13:51:31;25.60;99.90
37002;DHT22;22913;51.910;8.374;2023-06-22T13:54:16;25.50;99.90
37002;DHT22;22913;51.910;8.374;2023-06-22T13:57:02;25.20;99.90
37002;DHT22;22913;51.910;8.374;2023-06-22T13:59:49;25.10;99.90
37002;DHT22;22913;51.910;8.374;2023-06-22T14:02:35;25.00;99.90
37002;DHT22;22913;51.910;8.374;2023-06-22T14:05:21;24.90;99.90
37002;DHT22;22913;51.910;8.374;2023-06-22T14:08:06;24.70;99.90
37002;DHT22;22913;51.910;8.374;2023-06-22T14:10:52;24.40;99.90
37002;DHT22;22913;51.910;8.374;2023-06-22T14:13:38;24.20;99.90
37002;DHT22;22913;51.910;8.374;2023-06-22T14:16:27;24.20;99.90
37002;DHT22;22913;51.910;8.374;2023-06-22T14:19:13;24.00;99.90
37002;DHT22;22913;51.910;8.374;2023-06-22T14:21:58;23.80;99.90
37002;DHT22;22913;51.910;8.374;2023-06-22T14:24:44;23.70;99.90
37002;DHT22;22913;51.910;8.374;2023-06-22T14:27:30;23.60;99.90
37002;DHT22;22913;51.910;8.374;2023-06-22T14:30:15;23.50;99.90
37002;DHT22;22913;51.910;8.374;2023-06-22T14:33:02;23.50;99.90
37002;DHT22;22913;51.910;8.374;2023-06-22T14:35:48;23.50;99.90
37002;DHT22;22913;51.910;8.374;2023-06-22T14:38:34;23.50;99.90
37002;DHT22;22913;51.910;8.374;2023-06-22T14:41:19;23.60;99.90
37002;DHT22;22913;51.910;8.374;2023-06-22T14:44:05;23.60;99.90
37002;DHT22;22913;51.910;8.374;2023-06-22T14:46:51;23.70;99.90
37002;DHT22;22913;51.910;8.374;2023-06-22T14:49:38;24.00;99.90
37002;DHT22;22913;51.910;8.374;2023-06-22T14:52:25;24.30;99.90
37002;DHT22;22913;51.910;8.374;2023-06-22T14:55:11;24.90;99.90
37002;DHT22;22913;51.910;8.374;2023-06-22T14:57:57;25.40;99.90
37002;DHT22;22913;51.910;8.374;2023-06-22T15:00:42;25.80;99.90
37002;DHT22;22913;51.910;8.374;2023-06-22T15:03:29;26.20;99.90
37002;DHT22;22913;51.910;8.374;2023-06-22T15:06:17;26.30;99.90
37002;DHT22;22913;51.910;8.374;2023-06-22T15:09:03;26.30;99.90
37002;DHT22;22913;51.910;8.374;2023-06-22T15:11:49;26.40;99.90
37002;DHT22;22913;51.910;8.374;2023-06-22T15:14:34;26.20;99.90
37002;DHT22;22913;51.910;8.374;2023-06-22T15:17:20;26.30;99.90
37002;DHT22;22913;51.910;8.374;2023-06-22T15:20:06;26.50;99.90
37002;DHT22;22913;51.910;8.374;2023-06-22T15:22:53;26.60;99.90
37002;DHT22;22913;51.910;8.374;2023-06-22T15:25:38;26.90;99.90
37002;DHT22;22913;51.910;8.374;2023-06-22T15:28:24;27.30;99.90
37002;DHT22;22913;51.910;8.374;2023-06-22T15:31:10;27.60;99.90
37002;DHT22;22913;51.910;8.374;2023-06-22T15:33:55;28.00;99.90
37002;DHT22;22913;51.910;8.374;2023-06-22T15:36:41;28.30;99.90
37002;DHT22;22913;51.910;8.374;2023-06-22T15:39:28;28.40;99.90
37002;DHT22;22913;51.910;8.374;2023-06-22T15:42:14;28.40;99.90
37002;DHT22;22913;51.910;8.374;2023-06-22T15:44:59;28.50;99.90
37002;DHT22;22913;51.910;8.374;2023-06-22T15:47:45;28.50;99.90
37002;DHT22;22913;51.910;8.374;2023-06-22T15:50:31;28.30;99.90
37002;DHT22;22913;51.910;8.374;2023-06-22T15:53:16;28.30;99.90
37002;DHT22;22913;51.910;8.374;2023-06-22T15:56:04;28.10;99.90
37002;DHT22;22913;51.910;8.374;2023-06-22T15:58:53;28.00;99.90
37002;DHT22;22913;51.910;8.374;2023-06-22T16:01:40;27.90;99.90
37002;DHT22;22913;51.910;8.374;2023-06-22T16:04:26;27.60;99.90
37002;DHT22;22913;51.910;8.374;2023-06-22T16:07:12;27.40;99.90
37002;DHT22;22913;51.910;8.374;2023-06-22T16:09:58;27.40;99.90
37002;DHT22;22913;51.910;8.374;2023-06-22T16:12:45;27.20;99.90
37002;DHT22;22913;51.910;8.374;2023-06-22T16:15:30;26.90;99.90
37002;DHT22;22913;51.910;8.374;2023-06-22T16:18:16;26.70;99.90
37002;DHT22;22913;51.910;8.374;2023-06-22T16:21:02;26.60;99.90
37002;DHT22;22913;51.910;8.374;2023-06-22T16:23:49;26.40;99.90
37002;DHT22;22913;51.910;8.374;2023-06-22T16:26:39;26.20;99.90
37002;DHT22;22913;51.910;8.374;2023-06-22T16:29:26;26.10;99.90
37002;DHT22;22913;51.910;8.374;2023-06-22T16:32:12;26.00;99.90
37002;DHT22;22913;51.910;8.374;2023-06-22T16:34:59;25.80;99.90
37002;DHT22;22913;51.910;8.374;2023-06-22T16:37:45;25.70;99.90
37002;DHT22;22913;51.910;8.374;2023-06-22T16:40:30;25.40;99.90
37002;DHT22;22913;51.910;8.374;2023-06-22T16:43:16;25.30;99.90
37002;DHT22;22913;51.910;8.374;2023-06-22T16:46:03;25.10;99.90
37002;DHT22;22913;51.910;8.374;2023-06-22T16:48:50;25.00;99.90
37002;DHT22;22913;51.910;8.374;2023-06-22T16:51:36;24.90;99.90
37002;DHT22;22913;51.910;8.374;2023-06-22T16:54:22;24.80;99.90
37002;DHT22;22913;51.910;8.374;2023-06-22T16:57:08;24.70;99.90
37002;DHT22;22913;51.910;8.374;2023-06-22T16:59:54;24.60;99.90
37002;DHT22;22913;51.910;8.374;2023-06-22T17:02:43;24.40;99.90
37002;DHT22;22913;51.910;8.374;2023-06-22T17:05:31;24.20;99.90
37002;DHT22;22913;51.910;8.374;2023-06-22T17:08:17;23.90;99.90
37002;DHT22;22913;51.910;8.374;2023-06-22T17:11:03;23.60;99.90
37002;DHT22;22913;51.910;8.374;2023-06-22T17:13:49;23.40;99.90
37002;DHT22;22913;51.910;8.374;2023-06-22T17:16:35;23.30;99.90
37002;DHT22;22913;51.910;8.374;2023-06-22T17:19:24;23.30;99.90
37002;DHT22;22913;51.910;8.374;2023-06-22T17:22:09;23.20;99.90
37002;DHT22;22913;51.910;8.374;2023-06-22T17:24:55;23.10;99.90
37002;DHT22;22913;51.910;8.374;2023-06-22T17:27:41;22.90;99.90
37002;DHT22;22913;51.910;8.374;2023-06-22T17:30:27;22.80;99.90